Tulln, Austria
Current Conditions -  °F | °C
As of 11:20 AM on Wednesday 22 Oct 2014 (Local Time) from LOXT Reporting Station
Broken Clouds Broken Clouds  
Wind Chill: 41°   Ceiling: 4500
Heat Index: 48°   Visibility: 19mi
Dew Point: 41°   Wind: 22mph
Humidity: 76%   Direction: 250°WSW
Pressure: 29.77"   Gusts: NA
Location:  48.33°N, 16.06°E
Report Text: LOXT 220920Z 25019KT 30KM FEW028CU BKN045SC 09/05 Q1008 NOSIG RMK OVC
Loading
Personal Weather Stations






























Interactive Weather Map
Tropical Storm Tracking
New forecast layout! Learn more

10-Day Weather Forecast

Advertisements
Track Severe Weather on mobile